createdAt,value
2022-08-17T00:00:34.281Z,23.32
2022-08-17T00:11:28.796Z,23.20
2022-08-17T00:17:03.492Z,23.17
2022-08-17T00:22:33.973Z,23.10
2022-08-17T00:27:44.597Z,23.05
2022-08-17T00:33:12.070Z,22.99
2022-08-17T00:38:25.065Z,22.96
2022-08-17T00:43:38.977Z,22.92
2022-08-17T00:49:04.936Z,22.91
2022-08-17T00:54:15.506Z,22.95
2022-08-17T00:59:33.385Z,22.99
2022-08-17T01:04:39.077Z,23.03
2022-08-17T01:09:51.694Z,23.05
2022-08-17T01:14:58.583Z,23.05
2022-08-17T01:20:02.881Z,23.00
2022-08-17T01:25:27.031Z,23.01
2022-08-17T01:30:58.316Z,22.94
2022-08-17T01:36:04.947Z,22.89
2022-08-17T01:41:16.693Z,22.81
2022-08-17T01:46:27.151Z,22.76
2022-08-17T01:51:36.227Z,22.71
2022-08-17T01:56:47.268Z,22.69
2022-08-17T02:02:31.144Z,22.67
2022-08-17T02:07:55.965Z,22.63
2022-08-17T02:18:56.753Z,22.60
2022-08-17T02:24:10.976Z,22.59
2022-08-17T02:29:23.134Z,22.57
2022-08-17T02:34:31.096Z,22.58
2022-08-17T02:39:40.819Z,22.60
2022-08-17T02:44:59.018Z,22.57
2022-08-17T02:50:06.282Z,22.56
2022-08-17T02:55:29.056Z,22.53
2022-08-17T03:00:42.934Z,22.50
2022-08-17T03:05:56.650Z,22.46
2022-08-17T03:16:31.303Z,22.43
2022-08-17T03:21:55.288Z,22.41
2022-08-17T03:27:14.193Z,22.40
2022-08-17T03:32:26.577Z,22.38
2022-08-17T03:37:46.788Z,22.37
2022-08-17T03:43:15.070Z,22.37
2022-08-17T03:48:54.340Z,22.38
2022-08-17T03:54:18.613Z,22.35
2022-08-17T03:59:29.228Z,22.33
2022-08-17T04:04:38.695Z,22.35
2022-08-17T04:09:43.332Z,22.38
2022-08-17T04:14:54.968Z,22.39
2022-08-17T04:20:01.638Z,22.46
2022-08-17T04:25:11.247Z,22.49
2022-08-17T04:30:17.152Z,22.52
2022-08-17T04:35:30.271Z,22.53
2022-08-17T04:40:55.707Z,22.60
2022-08-17T04:46:08.141Z,22.63
2022-08-17T04:51:18.020Z,22.69
2022-08-17T04:56:27.320Z,22.67
2022-08-17T05:01:49.063Z,22.70
2022-08-17T05:07:23.494Z,22.71
2022-08-17T05:12:38.213Z,22.73
2022-08-17T05:17:46.442Z,22.74
2022-08-17T05:23:07.972Z,22.73
2022-08-17T05:28:26.700Z,22.76
2022-08-17T05:33:41.461Z,22.81
2022-08-17T05:38:58.102Z,22.91
2022-08-17T05:44:14.581Z,22.91
2022-08-17T05:49:28.115Z,23.02
2022-08-17T05:54:55.461Z,23.15
2022-08-17T06:00:14.100Z,23.29
2022-08-17T06:05:38.484Z,23.35
2022-08-17T06:11:05.916Z,23.49
2022-08-17T06:16:31.173Z,23.64
2022-08-17T06:27:43.016Z,24.03
2022-08-17T06:32:54.575Z,24.25
2022-08-17T06:38:07.560Z,24.33
2022-08-17T06:43:47.936Z,24.49
2022-08-17T06:49:03.180Z,24.75
2022-08-17T06:54:14.594Z,25.64
2022-08-17T06:59:55.947Z,26.16
2022-08-17T07:05:03.163Z,26.39
2022-08-17T07:10:20.928Z,26.48
2022-08-17T07:15:40.119Z,26.89
2022-08-17T07:20:53.253Z,27.46
2022-08-17T07:26:29.524Z,28.29
2022-08-17T07:31:53.248Z,28.57
2022-08-17T07:37:08.519Z,29.08
2022-08-17T07:42:30.607Z,29.73
2022-08-17T07:53:30.048Z,30.40
2022-08-17T07:58:51.763Z,30.46
2022-08-17T08:09:41.197Z,31.12
2022-08-17T08:14:59.802Z,30.94
2022-08-17T08:20:53.089Z,30.97
2022-08-17T08:26:18.589Z,31.35
2022-08-17T08:31:44.525Z,31.49
2022-08-17T08:37:32.853Z,31.66
2022-08-17T08:42:59.243Z,31.65
2022-08-17T08:48:56.014Z,31.99
2022-08-17T08:54:47.664Z,32.08
2022-08-17T09:00:19.956Z,31.75
2022-08-17T09:06:02.936Z,31.85
2022-08-17T09:11:32.904Z,32.04
2022-08-17T09:16:51.506Z,32.17
2022-08-17T09:22:13.851Z,31.95
2022-08-17T09:27:37.044Z,31.81
2022-08-17T09:33:08.813Z,31.85
2022-08-17T09:38:32.155Z,31.86
2022-08-17T09:44:56.198Z,31.85
2022-08-17T09:50:12.462Z,31.66
2022-08-17T09:56:06.584Z,31.87
2022-08-17T10:01:32.368Z,32.01
2022-08-17T10:06:56.244Z,32.05
2022-08-17T10:12:29.814Z,32.04
2022-08-17T10:17:51.198Z,31.83
2022-08-17T10:23:35.409Z,31.82
2022-08-17T10:28:55.048Z,31.90
2022-08-17T10:34:41.238Z,31.85
2022-08-17T10:40:14.961Z,32.02
2022-08-17T10:45:36.578Z,32.05
2022-08-17T10:51:09.943Z,32.20
2022-08-17T10:56:48.177Z,32.29
2022-08-17T11:02:29.432Z,32.37
2022-08-17T11:07:51.142Z,32.49
2022-08-17T11:13:12.765Z,32.64
2022-08-17T11:18:50.097Z,32.78
2022-08-17T11:24:10.376Z,32.93
2022-08-17T11:29:25.150Z,32.82
2022-08-17T11:34:45.133Z,32.98
2022-08-17T11:46:13.870Z,33.11
2022-08-17T11:51:36.798Z,32.80
2022-08-17T11:57:13.361Z,32.73
2022-08-17T12:02:56.462Z,32.89
2022-08-17T12:08:28.198Z,33.04
2022-08-17T12:13:45.379Z,33.04
2022-08-17T12:24:43.247Z,32.94
2022-08-17T12:29:50.398Z,32.96
2022-08-17T12:34:57.203Z,32.99
2022-08-17T12:40:14.648Z,33.02
2022-08-17T12:45:43.351Z,33.18
2022-08-17T12:51:14.803Z,33.43
2022-08-17T12:56:22.907Z,33.32
2022-08-17T13:01:27.949Z,33.48
2022-08-17T13:06:38.641Z,33.70
2022-08-17T13:11:54.321Z,33.76
2022-08-17T13:17:01.306Z,33.76
2022-08-17T13:22:13.389Z,33.77
2022-08-17T13:27:32.936Z,33.69
2022-08-17T13:32:43.920Z,33.61
2022-08-17T13:38:03.080Z,33.56
2022-08-17T13:43:08.105Z,33.50
2022-08-17T13:48:35.094Z,33.38
2022-08-17T13:54:05.248Z,33.48
2022-08-17T13:59:53.596Z,33.51
2022-08-17T14:05:10.158Z,33.47
2022-08-17T14:10:23.503Z,33.64
2022-08-17T14:15:54.853Z,33.57
2022-08-17T14:21:01.015Z,33.53
2022-08-17T14:26:08.765Z,33.44
2022-08-17T14:31:13.822Z,33.38
2022-08-17T14:36:20.971Z,33.33
2022-08-17T14:41:29.835Z,33.28
2022-08-17T14:46:41.266Z,33.19
2022-08-17T14:51:52.371Z,33.08
2022-08-17T14:57:33.743Z,33.03
2022-08-17T15:02:36.387Z,32.96
2022-08-17T15:08:17.826Z,32.96
2022-08-17T15:13:52.751Z,32.91
2022-08-17T15:19:12.161Z,32.83
2022-08-17T15:24:18.503Z,32.75
2022-08-17T15:29:34.860Z,32.69
2022-08-17T15:35:00.549Z,32.68
2022-08-17T15:40:19.825Z,32.62
2022-08-17T15:45:31.615Z,32.66
2022-08-17T15:50:46.204Z,32.57
2022-08-17T15:56:06.623Z,32.49
2022-08-17T16:02:11.987Z,32.48
2022-08-17T16:06:50.967Z,32.44
2022-08-17T16:11:59.870Z,32.46
2022-08-17T16:17:40.330Z,32.40
2022-08-17T16:22:59.092Z,32.35
2022-08-17T16:28:06.980Z,32.30
2022-08-17T16:33:29.062Z,32.29
2022-08-17T16:38:36.657Z,32.27
2022-08-17T16:43:50.225Z,32.28
2022-08-17T16:49:07.348Z,32.33
2022-08-17T16:54:25.855Z,32.33
2022-08-17T16:59:40.936Z,32.31
2022-08-17T17:05:00.505Z,32.32
2022-08-17T17:10:11.947Z,32.31
2022-08-17T17:15:23.417Z,32.26
2022-08-17T17:20:51.329Z,32.14
2022-08-17T17:26:10.086Z,32.00
2022-08-17T17:36:51.018Z,31.81
2022-08-17T17:42:09.290Z,31.73
2022-08-17T17:47:33.023Z,31.57
2022-08-17T17:52:50.194Z,31.46
2022-08-17T18:03:56.859Z,31.21
2022-08-17T18:09:33.800Z,31.10
2022-08-17T18:15:09.904Z,30.95
2022-08-17T18:20:53.343Z,30.83
2022-08-17T18:26:37.174Z,30.63
2022-08-17T18:31:48.561Z,30.45
2022-08-17T18:37:29.864Z,30.31
2022-08-17T18:42:50.912Z,30.17
2022-08-17T18:48:05.916Z,30.06
2022-08-17T18:53:50.993Z,29.99
2022-08-17T18:59:34.048Z,29.88
2022-08-17T19:04:42.123Z,29.77
2022-08-17T19:09:59.783Z,29.70
2022-08-17T19:15:19.797Z,29.65
2022-08-17T19:20:40.815Z,29.57
2022-08-17T19:26:53.977Z,29.51
2022-08-17T19:32:13.253Z,29.42
2022-08-17T19:37:43.497Z,29.41
2022-08-17T19:43:04.353Z,29.34
2022-08-17T19:49:03.953Z,29.40
2022-08-17T19:54:35.032Z,29.36
2022-08-17T19:59:51.262Z,29.31
2022-08-17T20:05:03.439Z,29.18
2022-08-17T20:10:15.050Z,29.00
2022-08-17T20:15:31.650Z,28.86
2022-08-17T20:20:48.798Z,28.73
2022-08-17T20:26:09.951Z,28.60
2022-08-17T20:31:45.808Z,28.48
2022-08-17T20:37:08.925Z,28.32
2022-08-17T20:42:36.763Z,28.18
2022-08-17T20:48:22.199Z,28.08
2022-08-17T20:54:08.904Z,28.02
2022-08-17T21:05:44.571Z,27.75
2022-08-17T21:11:06.548Z,27.61
2022-08-17T21:16:41.780Z,27.47
2022-08-17T21:22:02.134Z,27.34
2022-08-17T21:27:21.155Z,27.23
2022-08-17T21:32:40.407Z,27.11
2022-08-17T21:38:00.384Z,26.99
2022-08-17T21:43:30.445Z,26.90
2022-08-17T21:48:48.251Z,26.77
2022-08-17T21:54:05.826Z,26.66
2022-08-17T21:59:40.983Z,26.59
2022-08-17T22:05:01.198Z,26.50
2022-08-17T22:10:10.545Z,26.41
2022-08-17T22:15:22.095Z,26.32
2022-08-17T22:20:36.623Z,26.24
2022-08-17T22:37:14.075Z,25.96
2022-08-17T22:42:32.325Z,25.84
2022-08-17T22:48:11.286Z,25.75
2022-08-17T22:53:43.018Z,25.64
2022-08-17T22:59:24.940Z,25.51
2022-08-17T23:04:44.306Z,25.43
2022-08-17T23:09:55.507Z,25.33
2022-08-17T23:15:07.827Z,25.25
2022-08-17T23:20:40.743Z,25.18
2022-08-17T23:25:55.699Z,25.09
2022-08-17T23:31:11.140Z,25.05
2022-08-17T23:36:20.196Z,24.96
2022-08-17T23:42:03.923Z,24.92
2022-08-17T23:47:16.142Z,24.83
2022-08-17T23:52:26.906Z,24.75
2022-08-17T23:57:43.447Z,24.70
